sensor_id;sensor_type;location;lat;lon;timestamp;temperature;humidity
16140;DHT22;8175;49.326;12.690;2023-06-26T00:00:19;14.70;99.90
16140;DHT22;8175;49.326;12.690;2023-06-26T00:02:45;14.70;99.90
16140;DHT22;8175;49.326;12.690;2023-06-26T00:05:11;14.70;99.90
16140;DHT22;8175;49.326;12.690;2023-06-26T00:07:37;14.70;99.90
16140;DHT22;8175;49.326;12.690;2023-06-26T00:10:03;14.70;99.90
16140;DHT22;8175;49.326;12.690;2023-06-26T00:12:30;14.70;99.90
16140;DHT22;8175;49.326;12.690;2023-06-26T00:14:56;14.80;99.90
16140;DHT22;8175;49.326;12.690;2023-06-26T00:17:22;14.80;99.90
16140;DHT22;8175;49.326;12.690;2023-06-26T00:19:48;14.90;99.90
16140;DHT22;8175;49.326;12.690;2023-06-26T00:22:14;15.00;99.90
16140;DHT22;8175;49.326;12.690;2023-06-26T00:24:40;15.20;99.90
16140;DHT22;8175;49.326;12.690;2023-06-26T00:27:06;15.30;99.90
16140;DHT22;8175;49.326;12.690;2023-06-26T00:29:31;15.40;99.90
16140;DHT22;8175;49.326;12.690;2023-06-26T00:31:57;15.50;99.90
16140;DHT22;8175;49.326;12.690;2023-06-26T00:34:22;15.50;99.90
16140;DHT22;8175;49.326;12.690;2023-06-26T00:36:48;15.30;99.90
16140;DHT22;8175;49.326;12.690;2023-06-26T00:39:14;15.10;99.90
16140;DHT22;8175;49.326;12.690;2023-06-26T00:41:39;15.00;99.90
16140;DHT22;8175;49.326;12.690;2023-06-26T00:44:05;14.90;99.90
16140;DHT22;8175;49.326;12.690;2023-06-26T00:46:32;14.90;99.90
16140;DHT22;8175;49.326;12.690;2023-06-26T00:49:03;14.80;99.90
16140;DHT22;8175;49.326;12.690;2023-06-26T00:51:29;14.90;99.90
16140;DHT22;8175;49.326;12.690;2023-06-26T00:53:56;14.90;99.90
16140;DHT22;8175;49.326;12.690;2023-06-26T00:56:22;15.00;99.90
16140;DHT22;8175;49.326;12.690;2023-06-26T00:58:47;15.10;99.90
16140;DHT22;8175;49.326;12.690;2023-06-26T01:01:13;15.10;99.90
16140;DHT22;8175;49.326;12.690;2023-06-26T01:03:49;15.00;99.90
16140;DHT22;8175;49.326;12.690;2023-06-26T01:06:20;15.00;99.90
16140;DHT22;8175;49.326;12.690;2023-06-26T01:08:47;14.90;99.90
16140;DHT22;8175;49.326;12.690;2023-06-26T01:11:14;14.80;99.90
16140;DHT22;8175;49.326;12.690;2023-06-26T01:13:43;14.70;99.90
16140;DHT22;8175;49.326;12.690;2023-06-26T01:16:11;14.70;99.90
16140;DHT22;8175;49.326;12.690;2023-06-26T01:18:38;14.60;99.90
16140;DHT22;8175;49.326;12.690;2023-06-26T01:21:09;14.50;99.90
16140;DHT22;8175;49.326;12.690;2023-06-26T01:23:40;14.40;99.90
16140;DHT22;8175;49.326;12.690;2023-06-26T01:26:19;14.30;99.90
16140;DHT22;8175;49.326;12.690;2023-06-26T01:28:45;14.30;99.90
16140;DHT22;8175;49.326;12.690;2023-06-26T01:31:11;14.20;99.90
16140;DHT22;8175;49.326;12.690;2023-06-26T01:33:39;14.10;99.90
16140;DHT22;8175;49.326;12.690;2023-06-26T01:36:06;14.00;99.90
16140;DHT22;8175;49.326;12.690;2023-06-26T01:38:32;14.00;99.90
16140;DHT22;8175;49.326;12.690;2023-06-26T01:40:58;13.90;99.90
16140;DHT22;8175;49.326;12.690;2023-06-26T01:49:25;13.70;99.90
16140;DHT22;8175;49.326;12.690;2023-06-26T01:52:27;13.70;99.90
16140;DHT22;8175;49.326;12.690;2023-06-26T01:55:26;13.70;99.90
16140;DHT22;8175;49.326;12.690;2023-06-26T01:57:56;13.80;99.90
16140;DHT22;8175;49.326;12.690;2023-06-26T02:00:23;13.90;99.90
16140;DHT22;8175;49.326;12.690;2023-06-26T02:02:49;13.90;99.90
16140;DHT22;8175;49.326;12.690;2023-06-26T02:05:15;13.90;99.90
16140;DHT22;8175;49.326;12.690;2023-06-26T02:07:41;13.90;99.90
16140;DHT22;8175;49.326;12.690;2023-06-26T03:44:41;14.90;99.90
16140;DHT22;8175;49.326;12.690;2023-06-26T03:47:07;14.90;99.90
16140;DHT22;8175;49.326;12.690;2023-06-26T03:49:32;14.90;99.90
16140;DHT22;8175;49.326;12.690;2023-06-26T03:51:58;14.80;99.90
16140;DHT22;8175;49.326;12.690;2023-06-26T03:54:24;14.80;99.90
16140;DHT22;8175;49.326;12.690;2023-06-26T03:56:49;14.80;99.90
16140;DHT22;8175;49.326;12.690;2023-06-26T03:59:15;14.90;99.90
16140;DHT22;8175;49.326;12.690;2023-06-26T04:01:41;14.90;99.90
16140;DHT22;8175;49.326;12.690;2023-06-26T04:04:06;15.10;99.90
16140;DHT22;8175;49.326;12.690;2023-06-26T04:06:32;15.10;99.90
16140;DHT22;8175;49.326;12.690;2023-06-26T04:08:58;15.10;99.90
16140;DHT22;8175;49.326;12.690;2023-06-26T04:11:25;15.10;99.90
16140;DHT22;8175;49.326;12.690;2023-06-26T04:13:50;15.20;99.90
16140;DHT22;8175;49.326;12.690;2023-06-26T04:16:16;15.20;99.90
16140;DHT22;8175;49.326;12.690;2023-06-26T04:18:42;15.20;99.90
16140;DHT22;8175;49.326;12.690;2023-06-26T04:21:09;15.30;99.90
16140;DHT22;8175;49.326;12.690;2023-06-26T04:23:37;15.30;99.90
16140;DHT22;8175;49.326;12.690;2023-06-26T04:26:03;15.30;99.90
16140;DHT22;8175;49.326;12.690;2023-06-26T04:28:31;15.30;99.90
16140;DHT22;8175;49.326;12.690;2023-06-26T04:30:57;15.40;99.90
16140;DHT22;8175;49.326;12.690;2023-06-26T04:33:23;15.40;99.90
16140;DHT22;8175;49.326;12.690;2023-06-26T04:35:49;15.50;99.90
16140;DHT22;8175;49.326;12.690;2023-06-26T04:38:15;15.50;99.90
16140;DHT22;8175;49.326;12.690;2023-06-26T04:40:41;15.50;99.90
16140;DHT22;8175;49.326;12.690;2023-06-26T04:43:06;15.50;99.90
16140;DHT22;8175;49.326;12.690;2023-06-26T04:45:32;15.60;99.90
16140;DHT22;8175;49.326;12.690;2023-06-26T04:47:58;15.60;99.90
16140;DHT22;8175;49.326;12.690;2023-06-26T04:50:26;15.70;99.90
16140;DHT22;8175;49.326;12.690;2023-06-26T04:52:54;15.70;99.90
16140;DHT22;8175;49.326;12.690;2023-06-26T04:55:20;15.80;99.90
16140;DHT22;8175;49.326;12.690;2023-06-26T04:57:47;15.70;99.90
16140;DHT22;8175;49.326;12.690;2023-06-26T05:00:13;15.70;99.90
16140;DHT22;8175;49.326;12.690;2023-06-26T05:02:40;15.80;99.90
16140;DHT22;8175;49.326;12.690;2023-06-26T05:05:06;15.80;99.90
16140;DHT22;8175;49.326;12.690;2023-06-26T05:07:32;15.90;99.90
16140;DHT22;8175;49.326;12.690;2023-06-26T05:09:57;15.90;99.90
16140;DHT22;8175;49.326;12.690;2023-06-26T05:12:23;15.90;99.90
16140;DHT22;8175;49.326;12.690;2023-06-26T05:14:48;16.00;99.90
16140;DHT22;8175;49.326;12.690;2023-06-26T05:17:14;16.00;99.90
16140;DHT22;8175;49.326;12.690;2023-06-26T05:19:40;16.10;99.90
16140;DHT22;8175;49.326;12.690;2023-06-26T05:22:06;16.20;99.90
16140;DHT22;8175;49.326;12.690;2023-06-26T05:24:37;16.30;99.90
16140;DHT22;8175;49.326;12.690;2023-06-26T05:27:03;16.40;99.90
16140;DHT22;8175;49.326;12.690;2023-06-26T05:29:30;16.50;99.90
16140;DHT22;8175;49.326;12.690;2023-06-26T05:31:57;16.70;99.90
16140;DHT22;8175;49.326;12.690;2023-06-26T05:34:23;16.80;99.90
16140;DHT22;8175;49.326;12.690;2023-06-26T05:36:57;16.90;99.90
16140;DHT22;8175;49.326;12.690;2023-06-26T05:39:23;16.90;99.90
16140;DHT22;8175;49.326;12.690;2023-06-26T05:41:50;17.10;99.90
16140;DHT22;8175;49.326;12.690;2023-06-26T05:44:16;17.20;99.90
16140;DHT22;8175;49.326;12.690;2023-06-26T05:46:41;17.30;99.90
16140;DHT22;8175;49.326;12.690;2023-06-26T05:49:07;17.40;99.90
16140;DHT22;8175;49.326;12.690;2023-06-26T05:51:33;17.50;99.90
16140;DHT22;8175;49.326;12.690;2023-06-26T05:53:59;17.70;99.90
16140;DHT22;8175;49.326;12.690;2023-06-26T05:56:25;17.80;99.90
16140;DHT22;8175;49.326;12.690;2023-06-26T05:58:51;17.90;99.90
16140;DHT22;8175;49.326;12.690;2023-06-26T06:01:17;18.10;99.90
16140;DHT22;8175;49.326;12.690;2023-06-26T06:03:45;18.20;99.90
16140;DHT22;8175;49.326;12.690;2023-06-26T06:06:11;18.40;99.90
16140;DHT22;8175;49.326;12.690;2023-06-26T06:08:36;18.40;99.90
16140;DHT22;8175;49.326;12.690;2023-06-26T06:11:02;18.60;99.90
16140;DHT22;8175;49.326;12.690;2023-06-26T06:13:28;18.80;99.90
16140;DHT22;8175;49.326;12.690;2023-06-26T06:15:53;18.90;99.90
16140;DHT22;8175;49.326;12.690;2023-06-26T06:18:20;19.10;99.90
16140;DHT22;8175;49.326;12.690;2023-06-26T06:20:46;19.30;99.90
16140;DHT22;8175;49.326;12.690;2023-06-26T06:23:12;19.50;99.90
16140;DHT22;8175;49.326;12.690;2023-06-26T06:25:38;19.70;99.90
16140;DHT22;8175;49.326;12.690;2023-06-26T06:28:04;19.90;99.90
16140;DHT22;8175;49.326;12.690;2023-06-26T06:30:30;20.20;99.90
16140;DHT22;8175;49.326;12.690;2023-06-26T06:32:55;20.30;99.90
16140;DHT22;8175;49.326;12.690;2023-06-26T06:35:21;20.40;99.90
16140;DHT22;8175;49.326;12.690;2023-06-26T06:37:47;20.60;99.90
16140;DHT22;8175;49.326;12.690;2023-06-26T06:40:12;20.70;99.90
16140;DHT22;8175;49.326;12.690;2023-06-26T06:42:38;20.80;99.90
16140;DHT22;8175;49.326;12.690;2023-06-26T06:45:05;20.90;99.90
16140;DHT22;8175;49.326;12.690;2023-06-26T06:47:34;21.00;99.90
16140;DHT22;8175;49.326;12.690;2023-06-26T06:50:00;21.10;99.90
16140;DHT22;8175;49.326;12.690;2023-06-26T06:52:36;21.10;99.90
16140;DHT22;8175;49.326;12.690;2023-06-26T06:55:02;21.10;99.90
16140;DHT22;8175;49.326;12.690;2023-06-26T06:57:34;21.50;99.90
16140;DHT22;8175;49.326;12.690;2023-06-26T07:00:07;21.70;99.90
16140;DHT22;8175;49.326;12.690;2023-06-26T07:02:41;22.30;99.90
16140;DHT22;8175;49.326;12.690;2023-06-26T07:05:07;22.50;99.90
16140;DHT22;8175;49.326;12.690;2023-06-26T07:07:36;22.60;99.90
16140;DHT22;8175;49.326;12.690;2023-06-26T07:10:06;23.10;99.90
16140;DHT22;8175;49.326;12.690;2023-06-26T07:12:33;23.80;99.90
16140;DHT22;8175;49.326;12.690;2023-06-26T07:15:01;24.00;99.90
16140;DHT22;8175;49.326;12.690;2023-06-26T07:17:26;23.80;99.90
16140;DHT22;8175;49.326;12.690;2023-06-26T07:19:52;24.10;99.90
16140;DHT22;8175;49.326;12.690;2023-06-26T07:22:18;24.20;99.90
16140;DHT22;8175;49.326;12.690;2023-06-26T07:24:47;24.00;99.90
16140;DHT22;8175;49.326;12.690;2023-06-26T07:27:17;23.90;99.90
16140;DHT22;8175;49.326;12.690;2023-06-26T07:29:45;24.00;99.90
16140;DHT22;8175;49.326;12.690;2023-06-26T07:32:11;24.50;99.90
16140;DHT22;8175;49.326;12.690;2023-06-26T07:34:37;26.00;99.90
16140;DHT22;8175;49.326;12.690;2023-06-26T07:37:03;27.40;99.90
16140;DHT22;8175;49.326;12.690;2023-06-26T07:39:29;28.40;99.90
16140;DHT22;8175;49.326;12.690;2023-06-26T07:41:55;28.30;98.90
16140;DHT22;8175;49.326;12.690;2023-06-26T07:44:21;28.60;99.90
16140;DHT22;8175;49.326;12.690;2023-06-26T07:46:47;28.60;99.90
16140;DHT22;8175;49.326;12.690;2023-06-26T07:49:13;29.50;97.80
16140;DHT22;8175;49.326;12.690;2023-06-26T07:51:39;30.40;94.20
16140;DHT22;8175;49.326;12.690;2023-06-26T07:54:04;30.60;91.20
16140;DHT22;8175;49.326;12.690;2023-06-26T07:56:30;30.80;90.80
16140;DHT22;8175;49.326;12.690;2023-06-26T07:58:56;30.80;90.70
16140;DHT22;8175;49.326;12.690;2023-06-26T08:01:23;31.20;89.80
16140;DHT22;8175;49.326;12.690;2023-06-26T08:03:49;31.30;86.30
16140;DHT22;8175;49.326;12.690;2023-06-26T08:06:15;32.40;81.40
16140;DHT22;8175;49.326;12.690;2023-06-26T08:08:40;32.60;78.50
16140;DHT22;8175;49.326;12.690;2023-06-26T08:11:06;31.50;76.60
16140;DHT22;8175;49.326;12.690;2023-06-26T08:13:32;31.50;81.50
16140;DHT22;8175;49.326;12.690;2023-06-26T08:15:57;31.70;77.50
16140;DHT22;8175;49.326;12.690;2023-06-26T08:18:23;31.50;79.00
16140;DHT22;8175;49.326;12.690;2023-06-26T08:20:49;31.70;77.90
16140;DHT22;8175;49.326;12.690;2023-06-26T08:23:14;31.40;78.70
16140;DHT22;8175;49.326;12.690;2023-06-26T08:25:40;31.30;80.10
16140;DHT22;8175;49.326;12.690;2023-06-26T08:28:05;31.20;77.50
16140;DHT22;8175;49.326;12.690;2023-06-26T08:30:32;31.00;78.10
16140;DHT22;8175;49.326;12.690;2023-06-26T08:32:58;31.50;79.30
16140;DHT22;8175;49.326;12.690;2023-06-26T08:35:23;32.10;78.50
16140;DHT22;8175;49.326;12.690;2023-06-26T08:37:49;32.60;77.50
16140;DHT22;8175;49.326;12.690;2023-06-26T08:40:18;32.60;72.70
16140;DHT22;8175;49.326;12.690;2023-06-26T08:42:45;32.40;71.00
16140;DHT22;8175;49.326;12.690;2023-06-26T08:45:11;32.40;70.50
16140;DHT22;8175;49.326;12.690;2023-06-26T08:47:37;32.80;73.10
16140;DHT22;8175;49.326;12.690;2023-06-26T08:50:12;33.50;73.10
16140;DHT22;8175;49.326;12.690;2023-06-26T08:52:58;33.60;71.90
16140;DHT22;8175;49.326;12.690;2023-06-26T08:55:32;34.20;70.50
16140;DHT22;8175;49.326;12.690;2023-06-26T08:57:59;33.80;65.40
16140;DHT22;8175;49.326;12.690;2023-06-26T09:00:25;34.10;66.50
16140;DHT22;8175;49.326;12.690;2023-06-26T09:02:50;34.20;67.30
16140;DHT22;8175;49.326;12.690;2023-06-26T09:05:17;34.00;64.00
16140;DHT22;8175;49.326;12.690;2023-06-26T09:07:42;33.80;65.40
16140;DHT22;8175;49.326;12.690;2023-06-26T09:10:08;33.10;66.30
16140;DHT22;8175;49.326;12.690;2023-06-26T09:12:35;32.80;66.10
16140;DHT22;8175;49.326;12.690;2023-06-26T09:15:01;32.60;66.00
16140;DHT22;8175;49.326;12.690;2023-06-26T09:17:33;32.80;66.10
16140;DHT22;8175;49.326;12.690;2023-06-26T09:20:04;33.20;62.70
16140;DHT22;8175;49.326;12.690;2023-06-26T09:22:33;32.30;64.50
16140;DHT22;8175;49.326;12.690;2023-06-26T09:24:58;32.20;65.10
16140;DHT22;8175;49.326;12.690;2023-06-26T09:27:25;32.10;63.30
16140;DHT22;8175;49.326;12.690;2023-06-26T09:29:51;32.40;62.50
16140;DHT22;8175;49.326;12.690;2023-06-26T09:32:17;33.00;65.00
16140;DHT22;8175;49.326;12.690;2023-06-26T09:34:43;33.50;63.50
16140;DHT22;8175;49.326;12.690;2023-06-26T09:37:12;33.10;64.20
16140;DHT22;8175;49.326;12.690;2023-06-26T09:39:39;32.90;58.10
16140;DHT22;8175;49.326;12.690;2023-06-26T09:42:04;32.20;59.50
16140;DHT22;8175;49.326;12.690;2023-06-26T09:44:33;32.20;60.90
16140;DHT22;8175;49.326;12.690;2023-06-26T09:46:59;32.40;59.50
16140;DHT22;8175;49.326;12.690;2023-06-26T09:49:27;32.80;60.40
16140;DHT22;8175;49.326;12.690;2023-06-26T09:51:53;32.70;57.80
16140;DHT22;8175;49.326;12.690;2023-06-26T09:54:21;32.30;58.60
16140;DHT22;8175;49.326;12.690;2023-06-26T09:56:47;32.40;60.60
16140;DHT22;8175;49.326;12.690;2023-06-26T09:59:13;32.30;60.20
16140;DHT22;8175;49.326;12.690;2023-06-26T10:01:42;32.50;62.30
16140;DHT22;8175;49.326;12.690;2023-06-26T10:04:10;32.90;58.20
16140;DHT22;8175;49.326;12.690;2023-06-26T10:06:43;32.90;57.90
16140;DHT22;8175;49.326;12.690;2023-06-26T10:09:11;32.80;58.10
16140;DHT22;8175;49.326;12.690;2023-06-26T10:11:49;32.70;59.70
16140;DHT22;8175;49.326;12.690;2023-06-26T10:14:17;32.60;56.80
16140;DHT22;8175;49.326;12.690;2023-06-26T10:16:44;32.40;57.00
16140;DHT22;8175;49.326;12.690;2023-06-26T10:19:11;32.40;54.60
16140;DHT22;8175;49.326;12.690;2023-06-26T10:21:39;32.20;54.10
16140;DHT22;8175;49.326;12.690;2023-06-26T10:24:06;32.50;54.10
16140;DHT22;8175;49.326;12.690;2023-06-26T10:26:38;32.90;54.60
16140;DHT22;8175;49.326;12.690;2023-06-26T10:29:05;33.00;53.10
16140;DHT22;8175;49.326;12.690;2023-06-26T10:31:33;33.00;52.40
16140;DHT22;8175;49.326;12.690;2023-06-26T10:34:00;33.00;54.00
16140;DHT22;8175;49.326;12.690;2023-06-26T10:36:30;33.00;54.90
16140;DHT22;8175;49.326;12.690;2023-06-26T10:38:58;33.00;53.00
16140;DHT22;8175;49.326;12.690;2023-06-26T10:41:25;33.00;52.30
16140;DHT22;8175;49.326;12.690;2023-06-26T10:44:11;32.90;52.60
16140;DHT22;8175;49.326;12.690;2023-06-26T10:46:53;32.50;52.10
16140;DHT22;8175;49.326;12.690;2023-06-26T10:49:20;32.80;54.80
16140;DHT22;8175;49.326;12.690;2023-06-26T10:51:47;33.10;52.90
16140;DHT22;8175;49.326;12.690;2023-06-26T10:54:18;33.30;51.10
16140;DHT22;8175;49.326;12.690;2023-06-26T10:56:48;33.50;52.70
16140;DHT22;8175;49.326;12.690;2023-06-26T10:59:22;33.20;53.40
16140;DHT22;8175;49.326;12.690;2023-06-26T11:02:06;33.20;51.90
16140;DHT22;8175;49.326;12.690;2023-06-26T11:04:38;33.70;52.50
16140;DHT22;8175;49.326;12.690;2023-06-26T11:07:24;33.90;55.80
16140;DHT22;8175;49.326;12.690;2023-06-26T11:10:08;33.90;52.10
16140;DHT22;8175;49.326;12.690;2023-06-26T11:12:44;33.00;52.90
16140;DHT22;8175;49.326;12.690;2023-06-26T11:15:16;33.00;52.40
16140;DHT22;8175;49.326;12.690;2023-06-26T11:17:43;33.40;58.20
16140;DHT22;8175;49.326;12.690;2023-06-26T11:20:10;34.00;54.80
16140;DHT22;8175;49.326;12.690;2023-06-26T11:22:40;33.80;53.00
16140;DHT22;8175;49.326;12.690;2023-06-26T11:25:08;34.00;52.10
16140;DHT22;8175;49.326;12.690;2023-06-26T11:27:40;33.90;51.70
16140;DHT22;8175;49.326;12.690;2023-06-26T11:30:07;33.70;53.20
16140;DHT22;8175;49.326;12.690;2023-06-26T11:32:33;33.00;52.80
16140;DHT22;8175;49.326;12.690;2023-06-26T11:34:59;33.00;54.10
16140;DHT22;8175;49.326;12.690;2023-06-26T11:37:25;32.70;52.40
16140;DHT22;8175;49.326;12.690;2023-06-26T11:39:51;32.40;56.40
16140;DHT22;8175;49.326;12.690;2023-06-26T11:42:18;32.70;52.40
16140;DHT22;8175;49.326;12.690;2023-06-26T11:44:44;33.30;53.90
16140;DHT22;8175;49.326;12.690;2023-06-26T11:47:18;33.50;54.60
16140;DHT22;8175;49.326;12.690;2023-06-26T11:49:48;33.90;52.10
16140;DHT22;8175;49.326;12.690;2023-06-26T11:52:15;33.70;50.70
16140;DHT22;8175;49.326;12.690;2023-06-26T11:54:42;33.60;52.10
16140;DHT22;8175;49.326;12.690;2023-06-26T11:57:08;33.50;50.60
16140;DHT22;8175;49.326;12.690;2023-06-26T11:59:40;33.00;51.00
16140;DHT22;8175;49.326;12.690;2023-06-26T12:02:10;33.30;53.60
16140;DHT22;8175;49.326;12.690;2023-06-26T12:04:41;32.80;51.40
16140;DHT22;8175;49.326;12.690;2023-06-26T12:07:08;32.20;52.40
16140;DHT22;8175;49.326;12.690;2023-06-26T12:09:42;32.80;51.40
16140;DHT22;8175;49.326;12.690;2023-06-26T12:12:10;32.30;53.10
16140;DHT22;8175;49.326;12.690;2023-06-26T12:14:36;31.90;53.90
16140;DHT22;8175;49.326;12.690;2023-06-26T12:17:07;32.00;54.00
16140;DHT22;8175;49.326;12.690;2023-06-26T12:19:37;31.70;53.30
16140;DHT22;8175;49.326;12.690;2023-06-26T12:22:06;31.70;54.60
16140;DHT22;8175;49.326;12.690;2023-06-26T12:24:33;32.10;54.30
16140;DHT22;8175;49.326;12.690;2023-06-26T12:26:58;32.60;53.20
16140;DHT22;8175;49.326;12.690;2023-06-26T12:29:34;32.60;51.80
16140;DHT22;8175;49.326;12.690;2023-06-26T12:32:00;32.90;54.50
16140;DHT22;8175;49.326;12.690;2023-06-26T12:34:33;32.80;54.50
16140;DHT22;8175;49.326;12.690;2023-06-26T12:37:09;32.40;53.40
16140;DHT22;8175;49.326;12.690;2023-06-26T12:42:24;32.60;53.50
16140;DHT22;8175;49.326;12.690;2023-06-26T12:44:51;32.60;53.70
16140;DHT22;8175;49.326;12.690;2023-06-26T12:47:23;33.20;50.70
16140;DHT22;8175;49.326;12.690;2023-06-26T12:49:52;33.80;54.40
16140;DHT22;8175;49.326;12.690;2023-06-26T12:52:19;33.60;53.90
16140;DHT22;8175;49.326;12.690;2023-06-26T12:54:46;33.80;54.00
16140;DHT22;8175;49.326;12.690;2023-06-26T12:57:13;33.80;50.80
16140;DHT22;8175;49.326;12.690;2023-06-26T12:59:42;33.20;51.50
16140;DHT22;8175;49.326;12.690;2023-06-26T13:02:08;33.40;54.50
16140;DHT22;8175;49.326;12.690;2023-06-26T13:04:34;34.20;52.00
16140;DHT22;8175;49.326;12.690;2023-06-26T13:07:01;34.10;50.60
16140;DHT22;8175;49.326;12.690;2023-06-26T13:09:26;33.80;51.60
16140;DHT22;8175;49.326;12.690;2023-06-26T13:11:53;33.80;51.10
16140;DHT22;8175;49.326;12.690;2023-06-26T13:14:19;33.70;51.80
16140;DHT22;8175;49.326;12.690;2023-06-26T13:16:46;33.40;50.10
16140;DHT22;8175;49.326;12.690;2023-06-26T13:19:12;32.90;52.30
16140;DHT22;8175;49.326;12.690;2023-06-26T13:21:38;32.80;52.10
16140;DHT22;8175;49.326;12.690;2023-06-26T13:24:04;32.00;53.00
16140;DHT22;8175;49.326;12.690;2023-06-26T13:26:30;31.50;54.80
16140;DHT22;8175;49.326;12.690;2023-06-26T13:28:55;32.10;57.70
16140;DHT22;8175;49.326;12.690;2023-06-26T13:31:22;32.40;51.70
16140;DHT22;8175;49.326;12.690;2023-06-26T13:33:47;32.40;52.60
16140;DHT22;8175;49.326;12.690;2023-06-26T13:36:18;32.60;53.20
16140;DHT22;8175;49.326;12.690;2023-06-26T13:38:44;32.70;54.10
16140;DHT22;8175;49.326;12.690;2023-06-26T13:41:10;33.00;51.60
16140;DHT22;8175;49.326;12.690;2023-06-26T13:43:36;33.60;50.90
16140;DHT22;8175;49.326;12.690;2023-06-26T13:46:02;32.90;49.90
16140;DHT22;8175;49.326;12.690;2023-06-26T13:48:28;31.40;51.70
16140;DHT22;8175;49.326;12.690;2023-06-26T13:50:54;30.80;54.50
16140;DHT22;8175;49.326;12.690;2023-06-26T13:53:20;31.10;55.70
16140;DHT22;8175;49.326;12.690;2023-06-26T13:55:46;31.60;55.90
16140;DHT22;8175;49.326;12.690;2023-06-26T13:58:12;31.30;55.00
16140;DHT22;8175;49.326;12.690;2023-06-26T14:00:39;31.20;55.30
16140;DHT22;8175;49.326;12.690;2023-06-26T14:03:05;31.90;53.70
16140;DHT22;8175;49.326;12.690;2023-06-26T14:05:35;32.90;51.50
16140;DHT22;8175;49.326;12.690;2023-06-26T14:08:06;33.50;50.80
16140;DHT22;8175;49.326;12.690;2023-06-26T14:10:32;32.70;51.90
16140;DHT22;8175;49.326;12.690;2023-06-26T14:13:02;31.70;56.30
16140;DHT22;8175;49.326;12.690;2023-06-26T14:15:29;31.00;55.10
16140;DHT22;8175;49.326;12.690;2023-06-26T14:17:54;31.30;56.10
16140;DHT22;8175;49.326;12.690;2023-06-26T14:20:21;32.10;56.40
16140;DHT22;8175;49.326;12.690;2023-06-26T14:22:48;33.00;55.50
16140;DHT22;8175;49.326;12.690;2023-06-26T14:25:15;33.60;53.10
16140;DHT22;8175;49.326;12.690;2023-06-26T14:27:40;33.30;51.80
16140;DHT22;8175;49.326;12.690;2023-06-26T14:30:07;32.10;52.30
16140;DHT22;8175;49.326;12.690;2023-06-26T14:32:34;31.10;55.10
16140;DHT22;8175;49.326;12.690;2023-06-26T14:35:00;30.50;54.90
16140;DHT22;8175;49.326;12.690;2023-06-26T14:37:28;29.90;56.70
16140;DHT22;8175;49.326;12.690;2023-06-26T14:39:54;30.00;55.90
16140;DHT22;8175;49.326;12.690;2023-06-26T14:42:19;31.00;56.20
16140;DHT22;8175;49.326;12.690;2023-06-26T14:44:45;32.00;55.20
16140;DHT22;8175;49.326;12.690;2023-06-26T14:47:13;32.90;52.50
16140;DHT22;8175;49.326;12.690;2023-06-26T14:49:40;33.20;52.10
16140;DHT22;8175;49.326;12.690;2023-06-26T14:52:06;33.20;53.60
16140;DHT22;8175;49.326;12.690;2023-06-26T14:54:31;33.10;51.00
16140;DHT22;8175;49.326;12.690;2023-06-26T14:56:58;33.10;54.90
16140;DHT22;8175;49.326;12.690;2023-06-26T14:59:23;33.20;52.00
16140;DHT22;8175;49.326;12.690;2023-06-26T15:01:49;33.70;50.70
16140;DHT22;8175;49.326;12.690;2023-06-26T15:04:15;33.80;47.60
16140;DHT22;8175;49.326;12.690;2023-06-26T15:06:40;33.50;47.50
16140;DHT22;8175;49.326;12.690;2023-06-26T15:09:06;33.50;47.60
16140;DHT22;8175;49.326;12.690;2023-06-26T15:11:32;33.60;51.40
16140;DHT22;8175;49.326;12.690;2023-06-26T15:13:57;33.70;51.60
16140;DHT22;8175;49.326;12.690;2023-06-26T15:16:23;33.50;48.40
16140;DHT22;8175;49.326;12.690;2023-06-26T15:18:49;33.50;48.70
16140;DHT22;8175;49.326;12.690;2023-06-26T15:21:14;33.20;50.70
16140;DHT22;8175;49.326;12.690;2023-06-26T15:23:40;33.10;50.10
16140;DHT22;8175;49.326;12.690;2023-06-26T15:26:05;33.40;49.50
16140;DHT22;8175;49.326;12.690;2023-06-26T15:28:31;33.60;47.80
16140;DHT22;8175;49.326;12.690;2023-06-26T15:30:57;33.70;50.10
16140;DHT22;8175;49.326;12.690;2023-06-26T15:33:22;33.30;46.20
16140;DHT22;8175;49.326;12.690;2023-06-26T15:35:48;33.10;45.90
16140;DHT22;8175;49.326;12.690;2023-06-26T15:38:14;32.90;48.70
16140;DHT22;8175;49.326;12.690;2023-06-26T15:40:39;32.90;46.10
16140;DHT22;8175;49.326;12.690;2023-06-26T15:43:05;33.20;46.80
16140;DHT22;8175;49.326;12.690;2023-06-26T15:45:31;32.80;44.60
16140;DHT22;8175;49.326;12.690;2023-06-26T15:47:56;32.40;44.30
16140;DHT22;8175;49.326;12.690;2023-06-26T15:50:22;32.00;46.80
16140;DHT22;8175;49.326;12.690;2023-06-26T15:52:48;31.80;46.30
16140;DHT22;8175;49.326;12.690;2023-06-26T15:55:14;32.20;46.00
16140;DHT22;8175;49.326;12.690;2023-06-26T15:57:40;31.80;46.20
16140;DHT22;8175;49.326;12.690;2023-06-26T16:00:06;31.70;45.90
16140;DHT22;8175;49.326;12.690;2023-06-26T16:02:32;31.10;47.00
16140;DHT22;8175;49.326;12.690;2023-06-26T16:04:59;31.00;47.30
16140;DHT22;8175;49.326;12.690;2023-06-26T16:07:24;31.20;46.60
16140;DHT22;8175;49.326;12.690;2023-06-26T16:09:50;31.50;48.90
16140;DHT22;8175;49.326;12.690;2023-06-26T16:12:15;32.10;48.60
16140;DHT22;8175;49.326;12.690;2023-06-26T16:14:41;31.80;45.60
16140;DHT22;8175;49.326;12.690;2023-06-26T16:17:07;31.20;48.50
16140;DHT22;8175;49.326;12.690;2023-06-26T16:19:33;31.10;48.10
16140;DHT22;8175;49.326;12.690;2023-06-26T16:21:59;30.60;48.40
16140;DHT22;8175;49.326;12.690;2023-06-26T16:24:25;30.40;50.80
16140;DHT22;8175;49.326;12.690;2023-06-26T16:26:50;30.70;49.60
16140;DHT22;8175;49.326;12.690;2023-06-26T16:29:16;30.80;49.10
16140;DHT22;8175;49.326;12.690;2023-06-26T16:31:42;31.10;49.40
16140;DHT22;8175;49.326;12.690;2023-06-26T16:34:08;31.20;51.20
16140;DHT22;8175;49.326;12.690;2023-06-26T16:36:33;30.60;50.40
16140;DHT22;8175;49.326;12.690;2023-06-26T16:38:59;30.60;51.30
16140;DHT22;8175;49.326;12.690;2023-06-26T16:41:26;30.80;49.70
16140;DHT22;8175;49.326;12.690;2023-06-26T16:43:52;31.00;51.00
16140;DHT22;8175;49.326;12.690;2023-06-26T16:46:18;30.60;50.90
16140;DHT22;8175;49.326;12.690;2023-06-26T16:48:44;30.00;51.40
16140;DHT22;8175;49.326;12.690;2023-06-26T16:51:09;29.50;52.00
16140;DHT22;8175;49.326;12.690;2023-06-26T16:53:35;29.10;52.50
16140;DHT22;8175;49.326;12.690;2023-06-26T16:56:01;28.80;54.40
16140;DHT22;8175;49.326;12.690;2023-06-26T16:58:27;28.60;55.80
16140;DHT22;8175;49.326;12.690;2023-06-26T17:00:52;28.60;55.40
16140;DHT22;8175;49.326;12.690;2023-06-26T17:03:18;28.80;55.30
16140;DHT22;8175;49.326;12.690;2023-06-26T17:05:47;29.10;56.80
16140;DHT22;8175;49.326;12.690;2023-06-26T17:08:13;29.00;53.60
16140;DHT22;8175;49.326;12.690;2023-06-26T17:10:39;29.20;54.40
16140;DHT22;8175;49.326;12.690;2023-06-26T17:13:04;29.30;54.70